CPA564 VHHH-RCTP
Flight info
| Callsign | CPA564 |
|---|---|
| Flight time | 1h 11m |
| Altitude | 39000 |
| Route | DALOL V631 ENVAR M750 EXTRA/N0523F290 M750 TONGA TONGA1A |
| Aircraft | A359/H-SDE2E3GHIJ3J4J5LM1ORWXY/LB1D1 |
Departure
| Time | 2026-05-04 10:57 |
|---|---|
| Airport | Hong Kong International Airport (VHHH) |
Arrival
| Time | 2026-05-04 12:08 |
|---|---|
| Airport | Taiwan Taoyuan International Airport (RCTP) |
| Time | Latitude | Longitude | Altitude | Speed | Heading |
|---|---|---|---|---|---|
| 2026-05-04 10:25 | 22.31046 | 113.92709 | 37 ft | 0 kts | 296° |
| 2026-05-04 10:42 | 22.31044 | 113.92715 | 38 ft | 4 kts | 296° |
| 2026-05-04 10:42 | 22.31032 | 113.92741 | 38 ft | 4 kts | 296° |
| 2026-05-04 10:42 | 22.31022 | 113.92764 | 38 ft | 2 kts | 296° |
| 2026-05-04 10:42 | 22.31014 | 113.92789 | 38 ft | 4 kts | 265° |
| 2026-05-04 10:43 | 22.31023 | 113.92812 | 38 ft | 4 kts | 217° |
| 2026-05-04 10:44 | 22.31065 | 113.92836 | 38 ft | 0 kts | 206° |
| 2026-05-04 10:47 | 22.31055 | 113.92831 | 38 ft | 4 kts | 206° |
| 2026-05-04 10:49 | 22.30783 | 113.92547 | 38 ft | 11 kts | 251° |
| 2026-05-04 10:49 | 22.30759 | 113.92474 | 38 ft | 9 kts | 250° |
| 2026-05-04 10:50 | 22.30734 | 113.92396 | 38 ft | 12 kts | 250° |
| 2026-05-04 10:51 | 22.30515 | 113.91713 | 38 ft | 21 kts | 251° |
| 2026-05-04 10:52 | 22.30466 | 113.91561 | 38 ft | 20 kts | 250° |
| 2026-05-04 10:52 | 22.30422 | 113.91427 | 38 ft | 17 kts | 250° |
| 2026-05-04 10:52 | 22.30385 | 113.91313 | 38 ft | 15 kts | 250° |
| 2026-05-04 10:54 | 22.30042 | 113.90253 | 38 ft | 18 kts | 250° |
| 2026-05-04 10:54 | 22.29998 | 113.90117 | 38 ft | 21 kts | 251° |
| 2026-05-04 10:56 | 22.29763 | 113.90248 | 37 ft | 81 kts | 71° |
| 2026-05-04 10:56 | 22.30018 | 113.91037 | 38 ft | 140 kts | 71° |
| 2026-05-04 10:56 | 22.30389 | 113.92168 | 338 ft | 164 kts | 70° |
| 2026-05-04 10:57 | 22.30800 | 113.93323 | 987 ft | 170 kts | 68° |
| 2026-05-04 10:57 | 22.31229 | 113.94566 | 1434 ft | 187 kts | 71° |
| 2026-05-04 10:57 | 22.31675 | 113.96009 | 1554 ft | 221 kts | 72° |
| 2026-05-04 10:57 | 22.32141 | 113.97677 | 1900 ft | 242 kts | 73° |
| 2026-05-04 10:58 | 22.32469 | 113.98862 | 2203 ft | 253 kts | 71° |
| 2026-05-04 10:58 | 22.33047 | 114.00634 | 3216 ft | 243 kts | 70° |
| 2026-05-04 10:58 | 22.33589 | 114.02331 | 4371 ft | 230 kts | 74° |
| 2026-05-04 10:58 | 22.33787 | 114.04027 | 5224 ft | 229 kts | 92° |
| 2026-05-04 10:59 | 22.33422 | 114.05706 | 5894 ft | 233 kts | 114° |
| 2026-05-04 10:59 | 22.32505 | 114.07125 | 6594 ft | 236 kts | 135° |
| 2026-05-04 10:59 | 22.31145 | 114.08187 | 7099 ft | 252 kts | 153° |
| 2026-05-04 10:59 | 22.29403 | 114.08761 | 7401 ft | 273 kts | 174° |
| 2026-05-04 11:00 | 22.27441 | 114.08825 | 7814 ft | 289 kts | 182° |
| 2026-05-04 11:01 | 22.13892 | 114.12917 | 11952 ft | 363 kts | 118° |
| 2026-05-04 11:02 | 22.12747 | 114.15405 | 12282 ft | 377 kts | 117° |
| 2026-05-04 11:02 | 22.11573 | 114.17972 | 12740 ft | 385 kts | 118° |
| 2026-05-04 11:05 | 21.84002 | 114.47481 | 19695 ft | 437 kts | 111° |
| 2026-05-04 11:06 | 21.83102 | 114.50605 | 20105 ft | 438 kts | 107° |
| 2026-05-04 11:06 | 21.82302 | 114.53784 | 20471 ft | 443 kts | 106° |
| 2026-05-04 11:06 | 21.81489 | 114.56993 | 20930 ft | 445 kts | 107° |
| 2026-05-04 11:06 | 21.80669 | 114.60209 | 21364 ft | 448 kts | 107° |
| 2026-05-04 11:08 | 21.74755 | 114.83323 | 24028 ft | 469 kts | 102° |
| 2026-05-04 11:10 | 21.74348 | 115.08405 | 26717 ft | 490 kts | 90° |
| 2026-05-04 11:12 | 21.74320 | 115.34647 | 29375 ft | 512 kts | 91° |
| 2026-05-04 11:12 | 21.74309 | 115.38491 | 29714 ft | 515 kts | 91° |
| 2026-05-04 11:12 | 21.74297 | 115.42354 | 30034 ft | 518 kts | 91° |
| 2026-05-04 11:12 | 21.74285 | 115.46237 | 30334 ft | 521 kts | 91° |
| 2026-05-04 11:13 | 21.74272 | 115.50145 | 30613 ft | 523 kts | 91° |
| 2026-05-04 11:13 | 21.74258 | 115.54063 | 30933 ft | 526 kts | 91° |
| 2026-05-04 11:13 | 21.74244 | 115.58002 | 31224 ft | 528 kts | 91° |
| 2026-05-04 11:13 | 21.74227 | 115.61958 | 31496 ft | 531 kts | 91° |
| 2026-05-04 11:14 | 21.74211 | 115.65939 | 31768 ft | 533 kts | 91° |
| 2026-05-04 11:14 | 21.74196 | 115.69927 | 32030 ft | 535 kts | 91° |
| 2026-05-04 11:14 | 21.74182 | 115.73932 | 32353 ft | 535 kts | 91° |
| 2026-05-04 11:16 | 21.74041 | 116.01713 | 34771 ft | 529 kts | 91° |
| 2026-05-04 11:16 | 21.74016 | 116.05716 | 35103 ft | 528 kts | 91° |
| 2026-05-04 11:16 | 21.74098 | 116.09612 | 35414 ft | 528 kts | 85° |
| 2026-05-04 11:17 | 21.74542 | 116.13525 | 35737 ft | 527 kts | 81° |
| 2026-05-04 11:17 | 21.75148 | 116.17405 | 36035 ft | 526 kts | 79° |
| 2026-05-04 11:19 | 21.80161 | 116.44216 | 38051 ft | 514 kts | 79° |
| 2026-05-04 11:19 | 21.80843 | 116.47938 | 38273 ft | 514 kts | 79° |
| 2026-05-04 11:19 | 21.81542 | 116.51761 | 38469 ft | 514 kts | 79° |
| 2026-05-04 11:19 | 21.82218 | 116.55479 | 38625 ft | 514 kts | 79° |
| 2026-05-04 11:20 | 21.82906 | 116.59254 | 38795 ft | 514 kts | 79° |
| 2026-05-04 11:20 | 21.83592 | 116.63025 | 38982 ft | 513 kts | 79° |
| 2026-05-04 11:20 | 21.84964 | 116.70574 | 39055 ft | 514 kts | 79° |
| 2026-05-04 11:22 | 21.90413 | 117.00764 | 39063 ft | 513 kts | 79° |
| 2026-05-04 11:23 | 21.91765 | 117.08314 | 39065 ft | 513 kts | 79° |
| 2026-05-04 11:25 | 21.96471 | 117.34718 | 39064 ft | 513 kts | 79° |
| 2026-05-04 11:25 | 21.97797 | 117.42218 | 39065 ft | 513 kts | 79° |
| 2026-05-04 11:26 | 21.99535 | 117.49715 | 39063 ft | 513 kts | 68° |
| 2026-05-04 11:27 | 22.12146 | 117.72872 | 39063 ft | 514 kts | 57° |
| 2026-05-04 11:28 | 22.15886 | 117.79436 | 39059 ft | 514 kts | 58° |
| 2026-05-04 11:28 | 22.19606 | 117.86019 | 39055 ft | 514 kts | 58° |
| 2026-05-04 11:29 | 22.23324 | 117.92613 | 39049 ft | 514 kts | 58° |
| 2026-05-04 11:29 | 22.27040 | 117.99202 | 39045 ft | 514 kts | 58° |
| 2026-05-04 11:33 | 22.53408 | 118.45138 | 39045 ft | 514 kts | 58° |
| 2026-05-04 11:33 | 22.57136 | 118.51744 | 39054 ft | 515 kts | 58° |
| 2026-05-04 11:34 | 22.60891 | 118.58340 | 39045 ft | 515 kts | 57° |
| 2026-05-04 11:34 | 22.64653 | 118.64938 | 39045 ft | 515 kts | 57° |
| 2026-05-04 11:35 | 22.68411 | 118.71541 | 39045 ft | 515 kts | 57° |
| 2026-05-04 11:35 | 22.72165 | 118.78149 | 39044 ft | 515 kts | 57° |
| 2026-05-04 11:36 | 22.75917 | 118.84763 | 39035 ft | 515 kts | 57° |
| 2026-05-04 11:36 | 22.79668 | 118.91385 | 39036 ft | 515 kts | 57° |
| 2026-05-04 11:37 | 22.83413 | 118.98004 | 39036 ft | 516 kts | 57° |
| 2026-05-04 11:37 | 22.87162 | 119.04637 | 39037 ft | 516 kts | 57° |
| 2026-05-04 11:38 | 22.90906 | 119.11272 | 39036 ft | 516 kts | 57° |
| 2026-05-04 11:38 | 22.94649 | 119.17914 | 39035 ft | 516 kts | 57° |
| 2026-05-04 11:39 | 22.98389 | 119.24558 | 39044 ft | 516 kts | 57° |
| 2026-05-04 11:41 | 23.11467 | 119.47861 | 39054 ft | 517 kts | 58° |
| 2026-05-04 11:41 | 23.14572 | 119.53407 | 39049 ft | 517 kts | 58° |
| 2026-05-04 11:41 | 23.17392 | 119.57618 | 39046 ft | 515 kts | 46° |
| 2026-05-04 11:42 | 23.19071 | 119.59425 | 39045 ft | 512 kts | 38° |
| 2026-05-04 11:42 | 23.24957 | 119.63688 | 38736 ft | 508 kts | 27° |
| 2026-05-04 11:42 | 23.28024 | 119.65605 | 38485 ft | 509 kts | 27° |
| 2026-05-04 11:43 | 23.31093 | 119.67520 | 38243 ft | 509 kts | 27° |
| 2026-05-04 11:43 | 23.34166 | 119.69446 | 37993 ft | 510 kts | 27° |
| 2026-05-04 11:43 | 23.37237 | 119.71375 | 37745 ft | 510 kts | 27° |
| 2026-05-04 11:43 | 23.40295 | 119.73300 | 37363 ft | 507 kts | 27° |
| 2026-05-04 11:44 | 23.43343 | 119.75222 | 36774 ft | 504 kts | 27° |
| 2026-05-04 11:44 | 23.46375 | 119.77134 | 36122 ft | 503 kts | 27° |
| 2026-05-04 11:44 | 23.49401 | 119.79058 | 35442 ft | 504 kts | 28° |
| 2026-05-04 11:44 | 23.52374 | 119.81088 | 34746 ft | 505 kts | 30° |
| 2026-05-04 11:45 | 23.55342 | 119.83158 | 33962 ft | 508 kts | 30° |
| 2026-05-04 11:45 | 23.58326 | 119.85234 | 33176 ft | 510 kts | 30° |
| 2026-05-04 11:45 | 23.61324 | 119.87311 | 32342 ft | 512 kts | 30° |
| 2026-05-04 11:45 | 23.64339 | 119.89396 | 31530 ft | 514 kts | 30° |
| 2026-05-04 11:46 | 23.67369 | 119.91489 | 30665 ft | 516 kts | 30° |
| 2026-05-04 11:46 | 23.70403 | 119.93585 | 29787 ft | 518 kts | 30° |
| 2026-05-04 11:46 | 23.73443 | 119.95685 | 29106 ft | 515 kts | 30° |
| 2026-05-04 11:46 | 23.76458 | 119.97768 | 28456 ft | 512 kts | 30° |
| 2026-05-04 11:47 | 23.79455 | 119.99841 | 27813 ft | 508 kts | 30° |
| 2026-05-04 11:47 | 23.82433 | 120.01901 | 27189 ft | 505 kts | 30° |
| 2026-05-04 11:47 | 23.85386 | 120.03944 | 26567 ft | 501 kts | 30° |
| 2026-05-04 11:47 | 23.88318 | 120.05974 | 25944 ft | 497 kts | 30° |
| 2026-05-04 11:48 | 23.91224 | 120.07985 | 25330 ft | 492 kts | 30° |
| 2026-05-04 11:48 | 23.94106 | 120.09982 | 24727 ft | 488 kts | 30° |
| 2026-05-04 11:48 | 23.96962 | 120.11962 | 24120 ft | 484 kts | 30° |
| 2026-05-04 11:48 | 23.99788 | 120.13922 | 23513 ft | 480 kts | 30° |
| 2026-05-04 11:49 | 24.02321 | 120.15680 | 22982 ft | 476 kts | 30° |
| 2026-05-04 11:49 | 24.05100 | 120.17610 | 22383 ft | 471 kts | 30° |
| 2026-05-04 11:49 | 24.07851 | 120.19521 | 21797 ft | 466 kts | 30° |
| 2026-05-04 11:49 | 24.10573 | 120.21414 | 21222 ft | 461 kts | 30° |
| 2026-05-04 11:50 | 24.13227 | 120.23265 | 20623 ft | 456 kts | 30° |
| 2026-05-04 11:50 | 24.15892 | 120.25119 | 20035 ft | 452 kts | 30° |
| 2026-05-04 11:50 | 24.18535 | 120.26957 | 19439 ft | 447 kts | 30° |
| 2026-05-04 11:50 | 24.21147 | 120.28775 | 18852 ft | 443 kts | 31° |
| 2026-05-04 11:51 | 24.23738 | 120.30580 | 18253 ft | 439 kts | 31° |
| 2026-05-04 11:51 | 24.26298 | 120.32364 | 17674 ft | 434 kts | 31° |
| 2026-05-04 11:51 | 24.28836 | 120.34135 | 17083 ft | 430 kts | 31° |
| 2026-05-04 11:51 | 24.31348 | 120.35888 | 16493 ft | 426 kts | 31° |
| 2026-05-04 11:52 | 24.33833 | 120.37622 | 15894 ft | 421 kts | 31° |
| 2026-05-04 11:52 | 24.36291 | 120.39340 | 15329 ft | 417 kts | 31° |
| 2026-05-04 11:52 | 24.38724 | 120.41040 | 14743 ft | 413 kts | 31° |
| 2026-05-04 11:52 | 24.41133 | 120.42725 | 14156 ft | 409 kts | 31° |
| 2026-05-04 11:53 | 24.43514 | 120.44391 | 13579 ft | 404 kts | 31° |
| 2026-05-04 11:53 | 24.45875 | 120.46046 | 12992 ft | 400 kts | 31° |
| 2026-05-04 11:53 | 24.48208 | 120.47680 | 12418 ft | 396 kts | 31° |
| 2026-05-04 11:53 | 24.50521 | 120.49299 | 11848 ft | 392 kts | 31° |
| 2026-05-04 11:55 | 24.64580 | 120.59171 | 10663 ft | 300 kts | 31° |
| 2026-05-04 11:55 | 24.66330 | 120.60394 | 10359 ft | 296 kts | 31° |
| 2026-05-04 11:56 | 24.67983 | 120.61721 | 10031 ft | 292 kts | 39° |
| 2026-05-04 11:56 | 24.69507 | 120.63181 | 9745 ft | 294 kts | 41° |
| 2026-05-04 11:56 | 24.71045 | 120.64692 | 9483 ft | 297 kts | 41° |
| 2026-05-04 11:56 | 24.72575 | 120.66205 | 9168 ft | 296 kts | 41° |
| 2026-05-04 11:57 | 24.74102 | 120.67707 | 8858 ft | 291 kts | 41° |
| 2026-05-04 11:57 | 24.75611 | 120.69189 | 8551 ft | 290 kts | 41° |
| 2026-05-04 11:57 | 24.77106 | 120.70662 | 8277 ft | 287 kts | 41° |
| 2026-05-04 11:57 | 24.78597 | 120.72132 | 7995 ft | 287 kts | 41° |
| 2026-05-04 11:58 | 24.80078 | 120.73591 | 7717 ft | 285 kts | 41° |
| 2026-05-04 11:58 | 24.81547 | 120.75038 | 7434 ft | 282 kts | 41° |
| 2026-05-04 11:58 | 24.83004 | 120.76473 | 7138 ft | 280 kts | 41° |
| 2026-05-04 11:58 | 24.84451 | 120.77898 | 6876 ft | 278 kts | 42° |
| 2026-05-04 11:59 | 24.85888 | 120.79314 | 6600 ft | 277 kts | 42° |
| 2026-05-04 11:59 | 24.87317 | 120.80723 | 6327 ft | 275 kts | 42° |
| 2026-05-04 11:59 | 24.88736 | 120.82122 | 6049 ft | 273 kts | 42° |
| 2026-05-04 11:59 | 24.90142 | 120.83516 | 5781 ft | 271 kts | 43° |
| 2026-05-04 12:00 | 24.91335 | 120.85112 | 5501 ft | 270 kts | 62° |
| 2026-05-04 12:00 | 24.91825 | 120.87080 | 5234 ft | 268 kts | 86° |
| 2026-05-04 12:00 | 24.91798 | 120.89127 | 4956 ft | 268 kts | 92° |
| 2026-05-04 12:00 | 24.91684 | 120.91167 | 4735 ft | 264 kts | 92° |
| 2026-05-04 12:01 | 24.91573 | 120.93136 | 4593 ft | 252 kts | 92° |
| 2026-05-04 12:01 | 24.91473 | 120.95014 | 4460 ft | 240 kts | 92° |
| 2026-05-04 12:02 | 24.93346 | 121.03802 | 3988 ft | 181 kts | 49° |
| 2026-05-04 12:03 | 24.94170 | 121.04844 | 3976 ft | 181 kts | 49° |
| 2026-05-04 12:03 | 24.94986 | 121.05889 | 3827 ft | 177 kts | 49° |
| 2026-05-04 12:03 | 24.95776 | 121.06903 | 3573 ft | 173 kts | 49° |
| 2026-05-04 12:03 | 24.96555 | 121.07895 | 3309 ft | 169 kts | 49° |
| 2026-05-04 12:04 | 24.97318 | 121.08866 | 3066 ft | 165 kts | 49° |
| 2026-05-04 12:04 | 24.98056 | 121.09807 | 2853 ft | 161 kts | 49° |
| 2026-05-04 12:04 | 24.98782 | 121.10733 | 2633 ft | 157 kts | 49° |
| 2026-05-04 12:04 | 24.99480 | 121.11623 | 2422 ft | 149 kts | 49° |
| 2026-05-04 12:05 | 25.00137 | 121.12459 | 2227 ft | 139 kts | 50° |
| 2026-05-04 12:05 | 25.00759 | 121.13253 | 2056 ft | 136 kts | 50° |
| 2026-05-04 12:05 | 25.01380 | 121.14044 | 1878 ft | 137 kts | 50° |
| 2026-05-04 12:05 | 25.02002 | 121.14838 | 1696 ft | 137 kts | 50° |
| 2026-05-04 12:06 | 25.02622 | 121.15630 | 1514 ft | 136 kts | 51° |
| 2026-05-04 12:06 | 25.03243 | 121.16422 | 1335 ft | 137 kts | 51° |
| 2026-05-04 12:06 | 25.03863 | 121.17213 | 1150 ft | 136 kts | 51° |
| 2026-05-04 12:06 | 25.04481 | 121.18002 | 970 ft | 136 kts | 51° |
| 2026-05-04 12:07 | 25.05097 | 121.18788 | 790 ft | 136 kts | 51° |
| 2026-05-04 12:07 | 25.05716 | 121.19575 | 592 ft | 135 kts | 51° |
| 2026-05-04 12:07 | 25.06326 | 121.20362 | 422 ft | 136 kts | 51° |
| 2026-05-04 12:07 | 25.06939 | 121.21152 | 248 ft | 137 kts | 52° |
| 2026-05-04 12:08 | 25.07568 | 121.21946 | 114 ft | 135 kts | 50° |
| 2026-05-04 12:08 | 25.08097 | 121.22625 | 108 ft | 93 kts | 50° |
| 2026-05-04 12:08 | 25.08402 | 121.23010 | 106 ft | 44 kts | 49° |
| 2026-05-04 12:08 | 25.08589 | 121.23245 | 107 ft | 31 kts | 49° |
| 2026-05-04 12:09 | 25.08674 | 121.23383 | 108 ft | 20 kts | 66° |
| 2026-05-04 12:09 | 25.08714 | 121.23525 | 107 ft | 19 kts | 76° |
| 2026-05-04 12:09 | 25.08731 | 121.23613 | 107 ft | 11 kts | 78° |
| 2026-05-04 12:09 | 25.08715 | 121.23669 | 105 ft | 6 kts | 140° |
| 2026-05-04 12:10 | 25.08707 | 121.23682 | 107 ft | 0 kts | 115° |
| 2026-05-04 12:10 | 25.08704 | 121.23684 | 106 ft | 0 kts | 133° |
| 2026-05-04 12:10 | 25.08703 | 121.23684 | 107 ft | 2 kts | 140° |
| 2026-05-04 12:11 | 25.08685 | 121.23680 | 107 ft | 8 kts | 197° |
| 2026-05-04 12:11 | 25.08597 | 121.23584 | 107 ft | 20 kts | 229° |
| 2026-05-04 12:11 | 25.08506 | 121.23474 | 107 ft | 14 kts | 212° |
| 2026-05-04 12:11 | 25.08434 | 121.23501 | 107 ft | 10 kts | 154° |
| 2026-05-04 12:12 | 25.08382 | 121.23475 | 107 ft | 9 kts | 234° |
| 2026-05-04 12:12 | 25.08345 | 121.23426 | 107 ft | 8 kts | 229° |
| 2026-05-04 12:12 | 25.08301 | 121.23400 | 107 ft | 6 kts | 168° |
| 2026-05-04 12:12 | 25.08259 | 121.23425 | 107 ft | 7 kts | 146° |
| 2026-05-04 12:13 | 25.08222 | 121.23458 | 107 ft | 3 kts | 140° |
| 2026-05-04 12:14 | 25.08206 | 121.23473 | 107 ft | 0 kts | 140° |